Time;durP1;ratioP1;P1;durP2;ratioP2;P2;SDS_P1;SDS_P2;PMS_P1;PMS_P2;Temp;Humidity;BMP_temperature;BMP_pressure;BME280_temperature;BME280_humidity;BME280_pressure;Samples;Min_cycle;Max_cycle;Signal;HPM_P1;HPM_P2
2023/03/18 00:02:08;;;;;;;10.77;9.13;;;;;;;9.53;100.00;99599.78;5038649;28;20640;-62
2023/03/18 00:04:34;;;;;;;14.13;8.90;;;;;;;9.51;100.00;99599.06;5063324;28;20178;-62
2023/03/18 00:06:59;;;;;;;12.50;9.33;;;;;;;9.34;100.00;99620.56;5056349;28;20219;-62
2023/03/18 00:09:25;;;;;;;12.43;10.13;;;;;;;9.30;100.00;99628.50;5062552;28;20218;-62
2023/03/18 00:11:51;;;;;;;12.83;10.20;;;;;;;9.41;100.00;99627.91;5053612;28;20216;-62
2023/03/18 00:14:16;;;;;;;14.23;10.57;;;;;;;9.35;100.00;99629.91;5066345;28;20209;-62
2023/03/18 00:16:41;;;;;;;16.80;10.50;;;;;;;9.31;100.00;99630.16;5053631;28;20330;-60
2023/03/18 00:19:06;;;;;;;13.70;10.67;;;;;;;8.99;100.00;99612.28;5059178;28;20550;-62
2023/03/18 00:21:33;;;;;;;16.27;10.10;;;;;;;8.73;100.00;99622.22;5067347;28;20718;-61
2023/03/18 00:23:59;;;;;;;17.10;9.93;;;;;;;8.53;100.00;99631.84;5059568;28;20187;-63
2023/03/18 00:26:26;;;;;;;11.77;9.87;;;;;;;8.61;100.00;99638.28;5061070;28;20186;-61
2023/03/18 00:28:54;;;;;;;13.00;10.27;;;;;;;8.70;100.00;99646.31;5067428;28;20275;-61
2023/03/18 00:31:19;;;;;;;15.27;10.20;;;;;;;8.81;100.00;99640.59;5041956;28;20247;-63
2023/03/18 00:33:45;;;;;;;13.73;10.90;;;;;;;8.71;100.00;99655.66;5057098;28;20660;-64
2023/03/18 00:36:12;;;;;;;14.87;11.13;;;;;;;8.71;100.00;99644.59;5058903;28;20193;-62
2023/03/18 00:38:41;;;;;;;12.73;10.57;;;;;;;8.74;100.00;99646.97;5054338;28;20268;-63
2023/03/18 00:41:10;;;;;;;12.20;10.50;;;;;;;8.77;100.00;99651.09;5059509;28;20689;-62
2023/03/18 00:43:51;;;;;;;15.20;10.60;;;;;;;8.68;100.00;99657.56;5061366;28;20180;-62
2023/03/18 00:46:19;;;;;;;13.50;10.57;;;;;;;8.56;100.00;99651.38;5063295;28;20531;-62
2023/03/18 00:48:46;;;;;;;13.43;10.27;;;;;;;8.52;100.00;99644.72;5062098;28;20177;-61
2023/03/18 00:51:13;;;;;;;15.93;11.47;;;;;;;8.52;100.00;99648.13;5054724;28;20246;-63
2023/03/18 00:53:47;;;;;;;14.77;10.90;;;;;;;8.54;100.00;99645.47;5069416;28;20196;-62
2023/03/18 00:56:14;;;;;;;15.50;11.10;;;;;;;8.55;100.00;99654.81;5070976;28;20187;-63
2023/03/18 00:58:40;;;;;;;14.13;11.33;;;;;;;8.59;100.00;99660.63;5067984;28;20478;-62
2023/03/18 01:01:06;;;;;;;16.03;12.07;;;;;;;8.55;100.00;99658.22;5057114;28;20221;-61
2023/03/18 01:03:32;;;;;;;17.63;10.83;;;;;;;8.69;100.00;99664.34;5062566;28;20184;-61
2023/03/18 01:05:59;;;;;;;16.70;10.70;;;;;;;8.73;100.00;99670.94;5066005;28;20184;-63
2023/03/18 01:08:25;;;;;;;13.07;10.70;;;;;;;8.67;100.00;99667.00;5068828;28;20235;-63
2023/03/18 01:10:51;;;;;;;16.07;11.57;;;;;;;8.67;100.00;99661.03;5062260;28;20300;-62
2023/03/18 01:13:17;;;;;;;12.30;11.00;;;;;;;8.59;100.00;99666.56;5074700;28;20267;-62
2023/03/18 01:15:42;;;;;;;16.83;11.30;;;;;;;8.69;100.00;99656.66;5068879;28;20207;-62
2023/03/18 01:18:10;;;;;;;14.90;10.20;;;;;;;8.59;100.00;99648.63;5064972;28;20639;-61
2023/03/18 01:20:37;;;;;;;15.80;10.50;;;;;;;8.59;100.00;99655.50;5063135;28;20220;-62
2023/03/18 01:23:04;;;;;;;11.50;10.40;;;;;;;8.64;100.00;99648.38;5069443;28;20625;-61
2023/03/18 01:25:30;;;;;;;13.10;9.93;;;;;;;8.69;100.00;99648.97;5066996;28;20169;-60
2023/03/18 01:27:55;;;;;;;18.73;10.97;;;;;;;8.62;100.00;99657.88;5065461;28;20196;-60
2023/03/18 01:30:22;;;;;;;15.33;10.83;;;;;;;8.65;100.00;99658.53;5059538;28;21219;-69
2023/03/18 01:32:48;;;;;;;14.07;11.83;;;;;;;8.72;100.00;99659.88;5056621;28;20186;-60
2023/03/18 01:35:14;;;;;;;14.53;11.03;;;;;;;8.73;100.00;99660.69;5059172;28;20219;-59
2023/03/18 01:37:39;;;;;;;15.67;11.17;;;;;;;8.82;100.00;99656.81;5071640;28;20662;-59
2023/03/18 01:40:08;;;;;;;13.03;11.27;;;;;;;8.67;100.00;99654.19;5062574;28;20183;-59
2023/03/18 01:42:34;;;;;;;16.83;11.33;;;;;;;8.63;100.00;99651.84;5057639;28;20230;-61
2023/03/18 01:45:24;;;;;;;14.63;12.00;;;;;;;8.55;100.00;99647.13;5072988;28;20270;-61
2023/03/18 01:47:50;;;;;;;15.00;12.20;;;;;;;8.53;100.00;99643.81;5072766;28;20168;-61
2023/03/18 01:50:25;;;;;;;16.07;12.03;;;;;;;8.58;100.00;99641.84;5062846;28;20199;-60
2023/03/18 01:52:56;;;;;;;12.73;11.03;;;;;;;8.61;100.00;99639.13;5084585;28;20198;-60
2023/03/18 01:55:26;;;;;;;14.33;11.57;;;;;;;8.67;100.00;99638.78;5071454;28;20577;-61
2023/03/18 01:57:52;;;;;;;12.07;10.77;;;;;;;8.69;100.00;99639.50;5071264;28;20540;-61
2023/03/18 02:00:18;;;;;;;16.07;12.43;;;;;;;8.53;100.00;99643.81;5064417;28;20173;-61
2023/03/18 02:02:47;;;;;;;13.43;11.73;;;;;;;8.42;100.00;99640.97;5070602;28;20177;-61
2023/03/18 02:05:19;;;;;;;17.10;13.10;;;;;;;8.43;100.00;99646.00;5070730;28;20181;-61
2023/03/18 02:07:44;;;;;;;14.27;12.57;;;;;;;8.45;100.00;99648.50;5061889;28;20229;-59
2023/03/18 02:10:18;;;;;;;17.07;12.23;;;;;;;8.50;100.00;99652.50;5057706;28;20638;-60
2023/03/18 02:12:49;;;;;;;15.37;12.17;;;;;;;8.54;100.00;99653.97;5085317;28;20635;-60
2023/03/18 02:15:18;;;;;;;18.27;13.33;;;;;;;8.60;100.00;99646.91;5070813;28;20720;-60
2023/03/18 02:18:08;;;;;;;16.10;12.73;;;;;;;8.53;100.00;99646.38;5070708;28;20651;-60
2023/03/18 02:20:39;;;;;;;14.77;12.57;;;;;;;8.60;100.00;99654.59;5063459;28;20614;-61
2023/03/18 02:23:33;;;;;;;15.70;12.87;;;;;;;8.45;100.00;99648.50;5056774;28;20192;-60
2023/03/18 02:26:14;;;;;;;16.90;13.03;;;;;;;8.47;100.00;99646.72;5071860;28;20264;-60
2023/03/18 02:28:41;;;;;;;15.07;12.90;;;;;;;8.65;100.00;99650.03;5070647;28;20226;-60
2023/03/18 02:31:10;;;;;;;17.27;12.60;;;;;;;8.60;100.00;99650.28;5063575;28;20244;-60
2023/03/18 02:33:38;;;;;;;16.60;13.70;;;;;;;8.52;100.00;99649.84;5057777;28;20200;-60
2023/03/18 02:36:27;;;;;;;17.10;14.30;;;;;;;8.27;100.00;99648.53;5055582;28;20185;-62
2023/03/18 02:38:53;;;;;;;18.00;13.57;;;;;;;8.38;100.00;99641.16;5070594;28;20212;-61
2023/03/18 02:41:25;;;;;;;20.90;14.83;;;;;;;8.38;100.00;99650.56;5063045;28;20223;-60
2023/03/18 02:43:51;;;;;;;14.80;13.20;;;;;;;8.46;100.00;99660.41;5076219;28;20254;-59
2023/03/18 02:46:28;;;;;;;18.00;13.40;;;;;;;8.46;100.00;99656.16;5070329;28;20506;-60
2023/03/18 02:48:56;;;;;;;17.07;13.23;;;;;;;8.35;100.00;99659.22;5058117;28;20189;-60
2023/03/18 02:51:22;;;;;;;18.43;14.60;;;;;;;8.47;100.00;99662.94;5063118;28;20226;-59
2023/03/18 02:53:49;;;;;;;18.10;13.83;;;;;;;8.56;100.00;99677.00;5076421;28;20201;-60
2023/03/18 02:56:15;;;;;;;18.63;14.23;;;;;;;8.59;100.00;99684.50;5071214;28;20547;-60
2023/03/18 02:58:41;;;;;;;18.70;13.60;;;;;;;8.61;100.00;99682.69;5071368;28;20188;-60
2023/03/18 03:01:07;;;;;;;18.20;13.60;;;;;;;8.52;100.00;99691.72;5063111;28;20228;-60
2023/03/18 03:03:34;;;;;;;21.33;15.83;;;;;;;8.47;100.00;99686.00;5078158;28;20283;-61
2023/03/18 03:06:00;;;;;;;17.97;13.00;;;;;;;8.42;100.00;99700.75;5070465;28;20185;-60
2023/03/18 03:08:27;;;;;;;16.13;13.80;;;;;;;8.40;100.00;99694.88;5069512;28;20239;-59
2023/03/18 03:10:52;;;;;;;18.50;13.60;;;;;;;8.31;100.00;99696.19;5056244;28;20224;-59
2023/03/18 03:13:19;;;;;;;16.60;13.43;;;;;;;8.37;100.00;99695.03;5073886;28;20682;-60
2023/03/18 03:15:45;;;;;;;18.20;12.90;;;;;;;7.91;100.00;99698.19;5070050;28;20179;-60
2023/03/18 03:18:10;;;;;;;18.33;14.07;;;;;;;7.97;100.00;99702.19;5070014;28;20177;-60
2023/03/18 03:20:37;;;;;;;19.00;13.53;;;;;;;8.00;100.00;99692.63;5065155;28;20223;-60
2023/03/18 03:23:05;;;;;;;19.77;13.67;;;;;;;8.15;100.00;99692.75;5081475;28;20184;-60
2023/03/18 03:25:31;;;;;;;21.63;15.23;;;;;;;8.21;100.00;99687.31;5070111;28;20218;-60
2023/03/18 03:27:57;;;;;;;21.90;15.03;;;;;;;8.27;100.00;99689.53;5070951;28;20528;-60
2023/03/18 03:30:22;;;;;;;19.03;14.20;;;;;;;8.24;100.00;99687.97;5062113;28;20224;-61
2023/03/18 03:32:48;;;;;;;21.93;15.33;;;;;;;8.31;100.00;99691.06;5069298;28;20176;-60
2023/03/18 03:35:16;;;;;;;18.67;15.53;;;;;;;8.35;100.00;99694.28;5070080;28;20200;-61
2023/03/18 03:37:42;;;;;;;17.80;14.83;;;;;;;8.35;100.00;99684.88;5069845;28;20204;-59
2023/03/18 03:40:10;;;;;;;17.67;14.73;;;;;;;8.33;100.00;99688.41;5060297;28;20663;-60
2023/03/18 03:42:36;;;;;;;17.73;14.67;;;;;;;8.35;100.00;99684.06;5055522;28;20204;-60
2023/03/18 03:45:04;;;;;;;17.40;14.30;;;;;;;8.29;100.00;99686.94;5073585;28;20180;-60
2023/03/18 03:47:31;;;;;;;17.07;15.30;;;;;;;8.38;100.00;99692.41;5075213;28;20265;-60
2023/03/18 03:49:56;;;;;;;17.53;14.13;;;;;;;8.36;100.00;99686.53;5073732;28;20254;-60
2023/03/18 03:52:22;;;;;;;24.27;16.13;;;;;;;8.25;100.00;99683.69;5079838;28;20663;-62
2023/03/18 03:54:47;;;;;;;17.30;15.60;;;;;;;7.99;100.00;99690.13;5075010;28;20188;-61
2023/03/18 03:57:12;;;;;;;21.07;15.87;;;;;;;7.96;100.00;99693.66;5074847;28;20263;-60
2023/03/18 03:59:38;;;;;;;22.37;16.13;;;;;;;8.03;100.00;99696.75;5074968;28;20274;-61
2023/03/18 04:02:03;;;;;;;22.57;16.30;;;;;;;8.10;100.00;99695.56;5068990;28;20281;-62
2023/03/18 04:04:28;;;;;;;18.77;15.50;;;;;;;8.09;100.00;99693.91;5075009;28;20484;-61
2023/03/18 04:06:54;;;;;;;18.57;16.40;;;;;;;8.03;100.00;99695.03;5074452;28;20234;-62
2023/03/18 04:09:20;;;;;;;22.60;16.47;;;;;;;7.98;100.00;99701.28;5073075;28;20200;-61
2023/03/18 04:11:45;;;;;;;20.47;15.90;;;;;;;8.03;100.00;99700.16;5066024;28;20220;-60
2023/03/18 04:14:11;;;;;;;24.93;15.97;;;;;;;8.07;100.00;99704.22;5062313;28;20189;-59
2023/03/18 04:16:37;;;;;;;20.93;17.10;;;;;;;7.99;100.00;99696.09;5058316;28;20231;-60
2023/03/18 04:19:02;;;;;;;18.97;16.97;;;;;;;7.91;100.00;99698.19;5077536;28;20611;-60
2023/03/18 04:21:27;;;;;;;24.00;15.93;;;;;;;7.83;100.00;99700.31;5075400;28;20304;-60
2023/03/18 04:23:53;;;;;;;19.90;16.07;;;;;;;7.64;100.00;99692.72;5078333;28;20237;-61
2023/03/18 04:26:18;;;;;;;19.70;15.13;;;;;;;7.62;100.00;99697.91;5074861;28;20192;-61
2023/03/18 04:28:43;;;;;;;18.17;15.73;;;;;;;7.56;100.00;99706.69;5073934;28;20627;-61
2023/03/18 04:31:09;;;;;;;22.33;16.67;;;;;;;7.47;100.00;99711.44;5042794;28;20574;-61
2023/03/18 04:33:34;;;;;;;19.20;17.20;;;;;;;7.43;100.00;99708.22;5073062;28;20205;-61
2023/03/18 04:35:59;;;;;;;18.40;15.97;;;;;;;7.36;100.00;99701.72;5074338;28;20181;-61
2023/03/18 04:38:27;;;;;;;22.90;16.97;;;;;;;7.45;100.00;99708.13;5073812;28;20177;-60
2023/03/18 04:40:52;;;;;;;21.23;16.03;;;;;;;7.53;100.00;99713.69;5070199;28;20292;-60
2023/03/18 04:43:17;;;;;;;22.53;16.00;;;;;;;7.48;100.00;99713.94;5069167;28;20955;-61
2023/03/18 04:45:43;;;;;;;24.03;16.70;;;;;;;7.52;100.00;99718.00;5073890;28;20192;-61
2023/03/18 04:48:09;;;;;;;22.00;16.53;;;;;;;7.48;100.00;99711.38;5073934;28;20272;-62
2023/03/18 04:50:35;;;;;;;19.80;16.63;;;;;;;7.50;100.00;99722.34;5067781;28;20730;-61
2023/03/18 04:53:00;;;;;;;22.57;16.17;;;;;;;7.57;100.00;99713.47;5071973;28;20185;-61
2023/03/18 04:55:25;;;;;;;22.80;15.77;;;;;;;7.57;100.00;99715.22;5072849;28;20201;-65
2023/03/18 04:57:51;;;;;;;20.77;16.80;;;;;;;7.58;100.00;99719.44;5073511;28;20297;-61
2023/03/18 05:00:21;;;;;;;18.33;15.47;;;;;;;7.50;100.00;99716.41;5065120;28;20184;-60
2023/03/18 05:02:47;;;;;;;20.77;16.73;;;;;;;7.34;100.00;99717.13;5085222;28;20189;-60
2023/03/18 05:05:13;;;;;;;21.63;16.47;;;;;;;7.35;100.00;99716.22;5067696;28;20636;-61
2023/03/18 05:07:39;;;;;;;25.33;17.30;;;;;;;7.33;100.00;99717.22;5064691;28;20652;-62
2023/03/18 05:10:08;;;;;;;18.70;16.70;;;;;;;7.38;100.00;99721.22;5061889;28;20188;-63
2023/03/18 05:12:35;;;;;;;21.13;17.37;;;;;;;7.39;100.00;99719.47;5087805;28;20300;-62
2023/03/18 05:15:00;;;;;;;23.97;16.87;;;;;;;7.43;100.00;99721.81;5058206;28;20208;-62
2023/03/18 05:17:26;;;;;;;25.40;17.07;;;;;;;7.39;100.00;99715.22;5073371;28;20184;-62
2023/03/18 05:19:51;;;;;;;20.87;17.77;;;;;;;7.43;100.00;99711.59;5073286;28;20187;-61
2023/03/18 05:22:18;;;;;;;24.30;17.50;;;;;;;7.46;100.00;99722.59;5065096;28;20228;-61
2023/03/18 05:24:47;;;;;;;27.13;19.37;;;;;;;7.47;100.00;99711.44;5075325;28;20287;-63
2023/03/18 05:27:14;;;;;;;21.27;18.07;;;;;;;7.48;100.00;99725.88;5071631;28;20650;-62
2023/03/18 05:29:40;;;;;;;21.80;18.60;;;;;;;7.33;100.00;99720.63;5072140;28;20539;-62
2023/03/18 05:32:06;;;;;;;21.03;17.80;;;;;;;7.40;100.00;99724.53;5058705;28;20722;-61
2023/03/18 05:34:36;;;;;;;23.20;18.50;;;;;;;7.39;100.00;99716.91;5063104;28;20216;-62
2023/03/18 05:37:01;;;;;;;27.30;19.23;;;;;;;7.37;100.00;99721.31;5068494;28;20720;-61
2023/03/18 05:39:27;;;;;;;27.00;18.13;;;;;;;7.25;100.00;99718.41;5064017;28;20177;-62
2023/03/18 05:41:52;;;;;;;20.37;17.63;;;;;;;7.38;100.00;99723.78;5068827;28;20702;-64
2023/03/18 05:44:18;;;;;;;22.20;17.67;;;;;;;7.47;100.00;99727.63;5062415;28;20197;-61
2023/03/18 05:46:43;;;;;;;18.60;16.80;;;;;;;7.51;100.00;99723.19;5081341;28;20228;-64
2023/03/18 05:49:09;;;;;;;19.53;17.10;;;;;;;7.38;100.00;99726.34;5072734;28;20250;-62
2023/03/18 05:51:34;;;;;;;19.00;16.97;;;;;;;7.42;100.00;99719.34;5074424;28;20686;-62
2023/03/18 05:54:00;;;;;;;21.97;18.77;;;;;;;7.38;100.00;99722.94;5075349;28;20196;-61
2023/03/18 05:56:25;;;;;;;20.93;17.33;;;;;;;7.36;100.00;99720.47;5072590;28;20177;-61
2023/03/18 05:58:50;;;;;;;21.23;17.13;;;;;;;7.34;100.00;99724.81;5072448;28;20181;-60
2023/03/18 06:01:16;;;;;;;21.43;17.27;;;;;;;7.35;100.00;99725.66;5071858;28;20258;-62
2023/03/18 06:03:41;;;;;;;23.23;17.50;;;;;;;7.27;100.00;99724.28;5077898;28;20541;-62
2023/03/18 06:06:07;;;;;;;26.33;18.70;;;;;;;7.17;100.00;99723.06;5072517;28;20173;-61
2023/03/18 06:08:33;;;;;;;23.50;17.63;;;;;;;7.16;100.00;99726.50;5071553;28;20318;-62
2023/03/18 06:10:58;;;;;;;22.03;17.37;;;;;;;7.09;100.00;99730.25;5069507;28;20772;-61
2023/03/18 06:13:23;;;;;;;21.97;17.10;;;;;;;7.03;100.00;99733.09;5070380;28;20227;-64
2023/03/18 06:15:55;;;;;;;23.63;17.57;;;;;;;7.02;100.00;99733.97;5072432;28;20177;-62
2023/03/18 06:18:20;;;;;;;21.13;18.50;;;;;;;7.01;100.00;99730.59;5070889;28;20200;-62
2023/03/18 06:20:45;;;;;;;21.67;18.00;;;;;;;6.96;100.00;99732.56;5067461;28;20231;-62
2023/03/18 06:23:11;;;;;;;26.80;19.63;;;;;;;6.99;100.00;99731.56;5080811;28;20185;-62
2023/03/18 06:25:37;;;;;;;22.17;18.47;;;;;;;6.98;100.00;99735.84;5071951;28;20175;-61
2023/03/18 06:28:02;;;;;;;27.77;20.27;;;;;;;6.92;100.00;99731.84;5071821;28;20539;-61
2023/03/18 06:30:28;;;;;;;21.97;19.33;;;;;;;6.89;100.00;99738.84;5063418;28;20235;-62
2023/03/18 06:32:53;;;;;;;23.73;18.70;;;;;;;6.79;100.00;99739.22;5083403;28;20520;-61
2023/03/18 06:35:18;;;;;;;24.33;19.83;;;;;;;6.89;100.00;99741.38;5072093;28;20273;-63
2023/03/18 06:37:44;;;;;;;25.43;19.67;;;;;;;6.89;100.00;99746.50;5071713;28;20256;-63
2023/03/18 06:40:11;;;;;;;24.73;21.13;;;;;;;7.00;100.00;99748.59;5062321;28;20704;-62
2023/03/18 06:42:36;;;;;;;25.23;20.20;;;;;;;7.32;100.00;99751.38;5071858;28;20186;-62
2023/03/18 06:45:02;;;;;;;25.43;20.10;;;;;;;7.57;100.00;99749.31;5071777;28;20632;-62
2023/03/18 06:47:27;;;;;;;18.50;16.50;;;;;;;8.30;100.00;99755.19;5071603;28;20188;-61
2023/03/18 06:49:53;;;;;;;24.13;14.53;;;;;;;9.29;100.00;99742.34;5071798;28;20180;-60
2023/03/18 06:52:18;;;;;;;11.97;10.70;;;;;;;10.73;100.00;99737.53;5076209;28;20255;-61
2023/03/18 06:54:44;;;;;;;12.13;10.87;;;;;;;12.20;100.00;99732.56;5071300;28;20211;-64
2023/03/18 06:57:10;;;;;;;10.83;9.50;;;;;;;13.22;100.00;99728.09;5070173;28;20177;-62
2023/03/18 06:59:36;;;;;;;9.93;8.73;;;;;;;13.85;100.00;99728.75;5071770;28;20200;-62
2023/03/18 07:02:04;;;;;;;10.20;7.87;;;;;;;15.01;100.00;99724.28;5062427;28;20220;-62
2023/03/18 07:04:29;;;;;;;8.37;7.33;;;;;;;15.85;100.00;99728.81;5071354;28;20188;-63
2023/03/18 07:06:55;;;;;;;13.00;8.00;;;;;;;15.87;100.00;99732.09;5069362;28;20543;-63
2023/03/18 07:09:21;;;;;;;10.33;7.67;;;;;;;17.15;100.00;99730.00;5069904;28;20283;-62
2023/03/18 07:11:46;;;;;;;11.00;6.53;;;;;;;18.25;98.08;99741.00;5074269;28;20224;-61
2023/03/18 07:14:13;;;;;;;8.47;6.47;;;;;;;19.46;90.33;99743.47;5072657;28;20207;-61
2023/03/18 07:16:39;;;;;;;9.53;7.10;;;;;;;20.13;78.84;99743.81;5069560;28;20184;-61
2023/03/18 07:19:05;;;;;;;13.23;7.40;;;;;;;17.25;94.84;99746.41;5069338;28;20262;-61
2023/03/18 07:21:30;;;;;;;9.13;7.03;;;;;;;17.02;100.00;99749.25;5067566;28;20258;-65
2023/03/18 07:23:55;;;;;;;10.60;8.23;;;;;;;16.93;100.00;99755.25;5065447;28;20184;-60
2023/03/18 07:26:21;;;;;;;9.20;8.23;;;;;;;16.57;100.00;99754.81;5071270;28;20188;-71
2023/03/18 07:28:46;;;;;;;10.13;8.60;;;;;;;16.28;100.00;99761.53;5071212;28;20175;-60
2023/03/18 07:31:12;;;;;;;16.40;9.03;;;;;;;17.45;100.00;99756.81;5069420;28;20231;-61
2023/03/18 07:33:38;;;;;;;10.63;8.60;;;;;;;17.51;100.00;99758.88;5076564;28;20211;-62
2023/03/18 07:36:03;;;;;;;9.77;8.13;;;;;;;18.82;94.13;99762.53;5071326;28;20200;-66
2023/03/18 07:38:29;;;;;;;10.77;8.10;;;;;;;18.04;92.25;99760.22;5070706;28;20172;-62
2023/03/18 07:40:55;;;;;;;9.97;7.80;;;;;;;19.07;90.73;99775.03;5058741;28;20293;-64
2023/03/18 07:43:21;;;;;;;15.00;8.70;;;;;;;18.39;91.25;99775.19;5064391;28;20185;-62
2023/03/18 07:45:46;;;;;;;11.63;8.00;;;;;;;19.24;88.30;99779.47;5067648;28;20189;-64
2023/03/18 07:48:13;;;;;;;12.23;8.50;;;;;;;19.75;79.83;99777.13;5071307;28;20552;-62
2023/03/18 07:50:38;;;;;;;10.57;8.50;;;;;;;20.07;75.15;99767.94;5062322;28;20686;-63
2023/03/18 07:53:03;;;;;;;10.17;9.00;;;;;;;19.64;76.27;99778.19;5081560;28;20188;-62
2023/03/18 07:55:28;;;;;;;11.03;7.77;;;;;;;19.85;77.54;99769.25;5070264;28;20695;-70
2023/03/18 07:57:54;;;;;;;10.93;7.97;;;;;;;20.36;73.74;99772.00;5070947;28;20188;-66
2023/03/18 08:00:20;;;;;;;9.52;7.18;;;;;;;21.41;58.36;99769.06;5049270;28;20173;-65
2023/03/18 08:02:45;;;;;;;9.75;7.50;;;;;;;19.56;70.61;99759.03;5069192;28;20529;-63
2023/03/18 08:05:10;;;;;;;9.93;6.53;;;;;;;19.40;70.93;99763.16;5070993;28;20226;-67
2023/03/18 08:07:36;;;;;;;9.27;7.35;;;;;;;18.72;76.27;99761.75;5070486;28;20225;-62
2023/03/18 08:10:02;;;;;;;9.43;7.40;;;;;;;18.65;83.74;99766.72;5067005;28;20211;-65
2023/03/18 08:12:27;;;;;;;10.87;6.73;;;;;;;18.36;86.76;99770.25;5047661;28;20651;-63
2023/03/18 08:14:52;;;;;;;11.40;6.20;;;;;;;18.46;80.30;99772.03;5070707;28;20204;-60
2023/03/18 08:17:18;;;;;;;6.70;5.40;;;;;;;19.09;75.57;99779.16;5075042;28;20219;-67
2023/03/18 08:19:43;;;;;;;7.87;5.87;;;;;;;18.48;78.98;99775.28;5069400;28;20250;-63
2023/03/18 08:22:09;;;;;;;8.87;6.10;;;;;;;18.15;85.59;99777.47;5068705;28;20220;-61
2023/03/18 08:24:36;;;;;;;8.00;6.37;;;;;;;17.76;86.85;99783.50;5069919;28;20276;-63
2023/03/18 08:27:01;;;;;;;10.40;6.70;;;;;;;17.01;91.23;99783.97;5069286;28;20192;-61
2023/03/18 08:29:26;;;;;;;11.00;6.10;;;;;;;16.29;94.54;99783.13;5070840;28;20180;-62
2023/03/18 08:31:53;;;;;;;8.47;6.50;;;;;;;15.33;100.00;99776.13;5041566;28;20227;-61
2023/03/18 08:34:18;;;;;;;11.33;6.13;;;;;;;14.55;100.00;99789.97;5041107;28;20596;-61
2023/03/18 08:36:43;;;;;;;8.33;5.00;;;;;;;14.57;100.00;99785.50;5053880;28;20192;-63
2023/03/18 08:39:09;;;;;;;7.63;5.13;;;;;;;14.83;100.00;99783.50;5053661;28;20272;-64
2023/03/18 08:41:35;;;;;;;6.37;4.60;;;;;;;14.79;100.00;99787.28;5052752;28;20312;-62
2023/03/18 08:44:04;;;;;;;6.93;4.73;;;;;;;14.71;100.00;99780.13;5053292;28;20688;-62
2023/03/18 08:46:29;;;;;;;4.17;3.43;;;;;;;14.01;100.00;99781.88;5052368;28;20262;-62
2023/03/18 08:48:55;;;;;;;6.67;3.00;;;;;;;13.44;100.00;99779.09;5054065;28;20644;-62
2023/03/18 08:51:21;;;;;;;5.90;3.70;;;;;;;13.95;100.00;99777.97;5056050;28;20216;-61
2023/03/18 08:53:47;;;;;;;4.23;3.83;;;;;;;14.19;100.00;99774.53;5057607;28;20287;-62
2023/03/18 08:56:13;;;;;;;5.50;3.73;;;;;;;14.26;100.00;99774.88;5052566;28;20647;-62
2023/03/18 08:58:39;;;;;;;7.63;4.37;;;;;;;14.80;100.00;99773.41;5053524;28;20263;-62
2023/03/18 09:01:04;;;;;;;6.27;3.90;;;;;;;15.03;100.00;99775.97;5060093;28;20657;-63
2023/03/18 09:03:30;;;;;;;5.27;3.40;;;;;;;15.29;98.09;99781.69;5069073;28;20185;-63
2023/03/18 09:05:56;;;;;;;4.87;3.70;;;;;;;15.51;96.54;99783.38;5052044;28;20209;-62
2023/03/18 09:08:22;;;;;;;4.57;3.17;;;;;;;15.48;95.01;99770.69;5053349;28;20576;-71
2023/03/18 09:10:52;;;;;;;4.83;3.00;;;;;;;16.03;93.24;99785.31;5051195;28;20260;-62
2023/03/18 09:13:19;;;;;;;5.13;2.93;;;;;;;17.11;84.89;99786.59;5061467;28;20633;-68
2023/03/18 09:15:44;;;;;;;3.80;2.97;;;;;;;18.12;68.15;99780.34;5053412;28;20209;-63
2023/03/18 09:18:10;;;;;;;2.60;2.40;;;;;;;19.25;60.24;99778.50;5053465;28;20208;-62
2023/03/18 09:20:36;;;;;;;3.80;2.23;;;;;;;20.01;54.40;99784.19;5051719;28;20277;-62
2023/03/18 09:23:02;;;;;;;2.47;2.23;;;;;;;19.68;50.75;99784.75;5049881;28;20190;-66
2023/03/18 09:25:28;;;;;;;3.17;2.10;;;;;;;20.07;50.08;99786.19;5040136;28;20174;-62
2023/03/18 09:27:53;;;;;;;5.10;2.60;;;;;;;21.45;44.84;99785.28;5053295;28;20204;-63
2023/03/18 09:30:19;;;;;;;4.93;2.30;;;;;;;22.40;43.42;99784.75;5047131;28;20189;-64
2023/03/18 09:32:44;;;;;;;4.33;2.47;;;;;;;23.40;41.67;99784.25;5065350;28;20292;-63
2023/03/18 09:35:11;;;;;;;3.85;2.50;;;;;;;24.40;39.39;99775.31;5052750;28;20689;-62
2023/03/18 09:37:36;;;;;;;3.95;2.50;;;;;;;25.31;35.88;99787.28;5051958;28;20239;-63
2023/03/18 09:40:03;;;;;;;3.95;2.20;;;;;;;26.30;34.74;99783.00;5053063;28;20178;-62
2023/03/18 09:42:40;;;;;;;3.72;2.70;;;;;;;25.53;35.31;99795.22;5056731;28;20657;-61
2023/03/18 09:45:23;;;;;;;3.30;2.60;;;;;;;23.50;36.16;99787.47;5039407;28;20593;-62
2023/03/18 09:48:18;;;;;;;3.58;2.05;;;;;;;24.37;35.72;99780.13;5052686;28;20177;-62
2023/03/18 09:51:16;;;;;;;2.75;1.95;;;;;;;26.03;34.80;99777.53;5077199;28;20315;-65
2023/03/18 09:53:49;;;;;;;3.60;2.42;;;;;;;25.60;33.18;99782.91;5044747;28;20561;-62
2023/03/18 09:56:19;;;;;;;2.80;2.22;;;;;;;23.79;35.40;99785.91;5051376;28;20200;-63
2023/03/18 09:58:58;;;;;;;4.90;2.65;;;;;;;24.65;35.00;99789.00;5052113;28;20664;-63
2023/03/18 10:01:27;;;;;;;7.47;2.78;;;;;;;25.60;33.59;99789.00;5068639;28;20249;-63
2023/03/18 10:04:01;;;;;;;4.35;2.35;;;;;;;25.97;33.18;99788.84;5033678;28;20241;-62
2023/03/18 10:06:27;;;;;;;4.03;2.20;;;;;;;25.72;33.36;99793.75;5084324;28;20207;-62
2023/03/18 10:09:13;;;;;;;4.03;2.40;;;;;;;23.63;37.32;99787.69;5052292;28;20560;-63
2023/03/18 10:11:45;;;;;;;4.95;2.70;;;;;;;22.48;37.05;99791.75;5057212;28;20307;-63
2023/03/18 10:14:25;;;;;;;4.63;2.20;;;;;;;22.32;39.50;99784.72;5052426;28;20346;-63
2023/03/18 10:17:13;;;;;;;4.18;2.53;;;;;;;22.70;39.53;99790.19;5051927;28;20181;-62
2023/03/18 10:19:45;;;;;;;3.00;2.00;;;;;;;24.11;37.52;99786.63;5045449;28;20198;-62
2023/03/18 10:22:23;;;;;;;3.75;2.28;;;;;;;24.77;35.98;99788.53;5066835;28;20701;-63
2023/03/18 10:24:57;;;;;;;5.22;2.50;;;;;;;25.63;33.67;99785.16;5078443;28;20187;-62
2023/03/18 10:27:50;;;;;;;3.88;2.40;;;;;;;25.57;33.20;99792.00;5051978;28;20256;-62
2023/03/18 10:30:42;;;;;;;3.88;2.30;;;;;;;25.88;33.42;99790.81;5044207;28;20547;-63
2023/03/18 10:33:19;;;;;;;4.75;2.35;;;;;;;25.00;33.44;99783.13;5061051;28;20182;-63
2023/03/18 10:36:14;;;;;;;3.13;2.03;;;;;;;23.33;36.40;99777.09;5083875;28;20675;-63
2023/03/18 10:38:43;;;;;;;4.53;2.65;;;;;;;22.75;37.55;99768.72;5033576;28;20189;-64
2023/03/18 10:41:18;;;;;;;3.05;1.75;;;;;;;21.88;38.67;99775.47;5052384;28;20250;-63
2023/03/18 10:43:46;;;;;;;5.43;1.88;;;;;;;21.59;40.29;99770.75;5055770;28;20173;-62
2023/03/18 10:46:14;;;;;;;3.63;2.05;;;;;;;21.04;41.68;99770.31;5050353;28;20185;-63
2023/03/18 10:48:59;;;;;;;4.07;2.00;;;;;;;20.69;42.87;99779.16;5050151;28;20193;-64
2023/03/18 10:51:49;;;;;;;3.33;2.10;;;;;;;20.06;43.96;99771.50;5054841;28;20235;-65
2023/03/18 10:54:52;;;;;;;6.50;2.20;;;;;;;19.79;46.47;99775.03;5039467;28;20477;-65
2023/03/18 10:57:20;;;;;;;4.63;2.40;;;;;;;18.89;52.26;99770.59;5038051;28;20193;-62
2023/03/18 10:59:46;;;;;;;6.60;2.37;;;;;;;19.02;51.12;99765.88;5051352;28;20688;-64
2023/03/18 11:02:33;;;;;;;5.07;2.23;;;;;;;18.82;54.73;99766.94;5074192;28;20277;-62
2023/03/18 11:05:04;;;;;;;5.00;2.27;;;;;;;18.95;59.02;99764.00;5051488;28;20189;-63
2023/03/18 11:07:31;;;;;;;5.03;2.30;;;;;;;19.07;56.56;99764.63;5050003;28;20753;-66
2023/03/18 11:10:23;;;;;;;7.13;2.47;;;;;;;18.69;57.04;99764.63;5083493;28;20648;-63
2023/03/18 11:12:49;;;;;;;7.43;2.40;;;;;;;18.55;55.67;99768.56;5058158;28;20229;-63
2023/03/18 11:15:18;;;;;;;4.13;2.70;;;;;;;18.22;57.53;99765.50;5069757;28;20240;-64
2023/03/18 11:17:48;;;;;;;7.47;2.57;;;;;;;17.86;60.13;99766.13;5058142;28;20762;-63
2023/03/18 11:20:46;;;;;;;6.13;2.40;;;;;;;17.81;64.95;99770.06;5047410;28;20268;-62
2023/03/18 11:23:44;;;;;;;4.10;2.37;;;;;;;18.03;66.64;99768.97;5075344;28;20188;-62
2023/03/18 11:26:16;;;;;;;5.70;2.60;;;;;;;18.09;62.97;99765.81;5069207;28;20184;-63
2023/03/18 11:28:41;;;;;;;3.07;2.37;;;;;;;18.01;69.11;99768.28;5068627;28;20192;-64